sensor_id;sensor_type;location;lat;lon;timestamp;P1;durP1;ratioP1;P2;durP2;ratioP2
18822;SDS011;9540;51.550;7.980;2023-02-04T00:00:07;26.57;;;5.90;;
18822;SDS011;9540;51.550;7.980;2023-02-04T00:02:37;35.17;;;5.70;;
18822;SDS011;9540;51.550;7.980;2023-02-04T00:05:05;35.23;;;6.97;;
18822;SDS011;9540;51.550;7.980;2023-02-04T00:07:34;34.17;;;6.37;;
18822;SDS011;9540;51.550;7.980;2023-02-04T00:10:02;36.23;;;5.60;;
18822;SDS011;9540;51.550;7.980;2023-02-04T00:12:30;38.33;;;5.90;;
18822;SDS011;9540;51.550;7.980;2023-02-04T00:14:57;40.17;;;7.00;;
18822;SDS011;9540;51.550;7.980;2023-02-04T00:17:25;44.83;;;6.70;;
18822;SDS011;9540;51.550;7.980;2023-02-04T00:19:52;32.47;;;6.67;;
18822;SDS011;9540;51.550;7.980;2023-02-04T00:22:20;41.13;;;7.03;;
18822;SDS011;9540;51.550;7.980;2023-02-04T00:24:48;32.30;;;6.33;;
18822;SDS011;9540;51.550;7.980;2023-02-04T00:27:15;36.97;;;6.70;;
18822;SDS011;9540;51.550;7.980;2023-02-04T00:29:43;48.87;;;7.53;;
18822;SDS011;9540;51.550;7.980;2023-02-04T00:32:10;38.70;;;7.50;;
18822;SDS011;9540;51.550;7.980;2023-02-04T00:34:37;57.47;;;9.13;;
18822;SDS011;9540;51.550;7.980;2023-02-04T00:37:04;29.47;;;6.07;;
18822;SDS011;9540;51.550;7.980;2023-02-04T00:39:31;47.67;;;6.87;;
18822;SDS011;9540;51.550;7.980;2023-02-04T00:41:59;52.77;;;8.50;;
18822;SDS011;9540;51.550;7.980;2023-02-04T00:44:26;38.50;;;6.20;;
18822;SDS011;9540;51.550;7.980;2023-02-04T00:46:54;33.50;;;5.87;;
18822;SDS011;9540;51.550;7.980;2023-02-04T00:49:21;38.63;;;6.47;;
18822;SDS011;9540;51.550;7.980;2023-02-04T00:51:48;29.93;;;5.33;;
18822;SDS011;9540;51.550;7.980;2023-02-04T00:54:15;36.47;;;6.87;;
18822;SDS011;9540;51.550;7.980;2023-02-04T00:56:42;45.47;;;5.80;;
18822;SDS011;9540;51.550;7.980;2023-02-04T00:59:11;50.67;;;6.47;;
18822;SDS011;9540;51.550;7.980;2023-02-04T01:01:38;36.03;;;5.80;;
18822;SDS011;9540;51.550;7.980;2023-02-04T01:04:05;30.63;;;6.47;;
18822;SDS011;9540;51.550;7.980;2023-02-04T01:06:32;36.93;;;6.97;;
18822;SDS011;9540;51.550;7.980;2023-02-04T01:08:59;62.20;;;6.63;;
18822;SDS011;9540;51.550;7.980;2023-02-04T01:11:27;58.53;;;7.57;;
18822;SDS011;9540;51.550;7.980;2023-02-04T01:13:54;49.93;;;7.87;;
18822;SDS011;9540;51.550;7.980;2023-02-04T01:16:23;51.03;;;6.60;;
18822;SDS011;9540;51.550;7.980;2023-02-04T01:18:50;38.80;;;5.93;;
18822;SDS011;9540;51.550;7.980;2023-02-04T01:21:20;42.97;;;6.67;;
18822;SDS011;9540;51.550;7.980;2023-02-04T01:23:47;58.87;;;8.30;;
18822;SDS011;9540;51.550;7.980;2023-02-04T01:26:14;43.53;;;7.37;;
18822;SDS011;9540;51.550;7.980;2023-02-04T01:28:42;40.40;;;6.50;;
18822;SDS011;9540;51.550;7.980;2023-02-04T01:31:09;52.53;;;7.23;;
18822;SDS011;9540;51.550;7.980;2023-02-04T01:33:37;36.87;;;6.10;;
18822;SDS011;9540;51.550;7.980;2023-02-04T01:36:04;40.97;;;7.00;;
18822;SDS011;9540;51.550;7.980;2023-02-04T01:38:32;45.50;;;7.23;;
18822;SDS011;9540;51.550;7.980;2023-02-04T01:40:59;42.37;;;8.10;;
18822;SDS011;9540;51.550;7.980;2023-02-04T01:43:26;42.83;;;8.73;;
18822;SDS011;9540;51.550;7.980;2023-02-04T01:45:54;50.00;;;8.53;;
18822;SDS011;9540;51.550;7.980;2023-02-04T01:48:21;50.57;;;9.77;;
18822;SDS011;9540;51.550;7.980;2023-02-04T01:50:50;49.03;;;7.23;;
18822;SDS011;9540;51.550;7.980;2023-02-04T01:53:19;44.77;;;8.10;;
18822;SDS011;9540;51.550;7.980;2023-02-04T01:55:49;41.43;;;7.63;;
18822;SDS011;9540;51.550;7.980;2023-02-04T01:58:16;40.33;;;7.50;;
18822;SDS011;9540;51.550;7.980;2023-02-04T02:00:43;49.83;;;9.23;;
18822;SDS011;9540;51.550;7.980;2023-02-04T02:03:11;41.67;;;8.00;;
18822;SDS011;9540;51.550;7.980;2023-02-04T02:05:39;40.67;;;8.47;;
18822;SDS011;9540;51.550;7.980;2023-02-04T02:08:10;47.47;;;8.00;;
18822;SDS011;9540;51.550;7.980;2023-02-04T02:10:41;55.80;;;9.40;;
18822;SDS011;9540;51.550;7.980;2023-02-04T02:13:11;42.50;;;7.90;;
18822;SDS011;9540;51.550;7.980;2023-02-04T02:15:40;51.93;;;7.63;;
18822;SDS011;9540;51.550;7.980;2023-02-04T02:18:08;44.37;;;8.00;;
18822;SDS011;9540;51.550;7.980;2023-02-04T02:20:36;56.97;;;8.30;;
18822;SDS011;9540;51.550;7.980;2023-02-04T02:23:05;37.90;;;7.50;;
18822;SDS011;9540;51.550;7.980;2023-02-04T02:25:40;52.13;;;8.27;;
18822;SDS011;9540;51.550;7.980;2023-02-04T02:28:09;48.07;;;7.17;;
18822;SDS011;9540;51.550;7.980;2023-02-04T02:30:38;42.83;;;7.97;;
18822;SDS011;9540;51.550;7.980;2023-02-04T02:33:06;42.37;;;7.33;;
18822;SDS011;9540;51.550;7.980;2023-02-04T02:35:34;38.00;;;7.50;;
18822;SDS011;9540;51.550;7.980;2023-02-04T02:38:01;43.73;;;7.30;;
18822;SDS011;9540;51.550;7.980;2023-02-04T02:40:28;40.47;;;7.27;;
18822;SDS011;9540;51.550;7.980;2023-02-04T02:42:56;38.60;;;7.03;;
18822;SDS011;9540;51.550;7.980;2023-02-04T02:45:24;48.80;;;6.73;;
18822;SDS011;9540;51.550;7.980;2023-02-04T02:47:53;46.73;;;8.60;;
18822;SDS011;9540;51.550;7.980;2023-02-04T02:50:23;31.47;;;7.10;;
18822;SDS011;9540;51.550;7.980;2023-02-04T02:53:02;47.03;;;8.27;;
18822;SDS011;9540;51.550;7.980;2023-02-04T02:55:29;51.07;;;11.20;;
18822;SDS011;9540;51.550;7.980;2023-02-04T02:57:59;45.40;;;9.93;;
18822;SDS011;9540;51.550;7.980;2023-02-04T03:00:27;56.90;;;11.63;;
18822;SDS011;9540;51.550;7.980;2023-02-04T03:02:56;67.67;;;17.13;;
18822;SDS011;9540;51.550;7.980;2023-02-04T03:05:27;71.07;;;12.70;;
18822;SDS011;9540;51.550;7.980;2023-02-04T03:07:58;43.77;;;9.50;;
18822;SDS011;9540;51.550;7.980;2023-02-04T03:10:25;62.27;;;13.70;;
18822;SDS011;9540;51.550;7.980;2023-02-04T03:12:53;62.40;;;13.40;;
18822;SDS011;9540;51.550;7.980;2023-02-04T03:15:21;40.10;;;9.93;;
18822;SDS011;9540;51.550;7.980;2023-02-04T03:17:48;49.93;;;10.10;;
18822;SDS011;9540;51.550;7.980;2023-02-04T03:20:20;61.93;;;15.03;;
18822;SDS011;9540;51.550;7.980;2023-02-04T03:22:49;42.53;;;10.20;;
18822;SDS011;9540;51.550;7.980;2023-02-04T03:25:16;48.07;;;7.40;;
18822;SDS011;9540;51.550;7.980;2023-02-04T03:27:44;36.00;;;8.40;;
18822;SDS011;9540;51.550;7.980;2023-02-04T03:30:12;35.10;;;6.73;;
18822;SDS011;9540;51.550;7.980;2023-02-04T03:32:40;35.90;;;5.13;;
18822;SDS011;9540;51.550;7.980;2023-02-04T03:35:07;41.30;;;7.37;;
18822;SDS011;9540;51.550;7.980;2023-02-04T03:37:34;43.60;;;6.53;;
18822;SDS011;9540;51.550;7.980;2023-02-04T03:40:02;34.10;;;5.83;;
18822;SDS011;9540;51.550;7.980;2023-02-04T03:42:29;32.53;;;5.47;;
18822;SDS011;9540;51.550;7.980;2023-02-04T03:44:56;36.87;;;6.03;;
18822;SDS011;9540;51.550;7.980;2023-02-04T03:47:23;32.03;;;4.93;;
18822;SDS011;9540;51.550;7.980;2023-02-04T03:49:52;47.73;;;5.60;;
18822;SDS011;9540;51.550;7.980;2023-02-04T03:52:19;39.17;;;6.17;;
18822;SDS011;9540;51.550;7.980;2023-02-04T03:54:46;38.07;;;5.50;;
18822;SDS011;9540;51.550;7.980;2023-02-04T03:57:13;36.73;;;6.23;;
18822;SDS011;9540;51.550;7.980;2023-02-04T03:59:41;38.67;;;6.03;;
18822;SDS011;9540;51.550;7.980;2023-02-04T04:02:08;42.63;;;7.53;;
18822;SDS011;9540;51.550;7.980;2023-02-04T04:04:35;41.67;;;5.93;;
18822;SDS011;9540;51.550;7.980;2023-02-04T04:07:04;38.97;;;6.10;;
18822;SDS011;9540;51.550;7.980;2023-02-04T04:09:34;34.80;;;5.37;;
18822;SDS011;9540;51.550;7.980;2023-02-04T04:12:01;41.93;;;6.63;;
18822;SDS011;9540;51.550;7.980;2023-02-04T04:14:29;31.93;;;5.37;;
18822;SDS011;9540;51.550;7.980;2023-02-04T04:16:56;37.43;;;5.57;;
18822;SDS011;9540;51.550;7.980;2023-02-04T04:19:23;34.17;;;5.63;;
18822;SDS011;9540;51.550;7.980;2023-02-04T04:21:50;44.93;;;6.87;;
18822;SDS011;9540;51.550;7.980;2023-02-04T04:24:19;47.27;;;6.23;;
18822;SDS011;9540;51.550;7.980;2023-02-04T04:26:46;40.13;;;6.17;;
18822;SDS011;9540;51.550;7.980;2023-02-04T04:29:13;42.17;;;6.00;;
18822;SDS011;9540;51.550;7.980;2023-02-04T04:31:40;46.57;;;7.27;;
18822;SDS011;9540;51.550;7.980;2023-02-04T04:34:09;44.83;;;7.50;;
18822;SDS011;9540;51.550;7.980;2023-02-04T04:36:37;33.90;;;6.83;;
18822;SDS011;9540;51.550;7.980;2023-02-04T04:39:04;40.97;;;8.27;;
18822;SDS011;9540;51.550;7.980;2023-02-04T04:41:33;37.77;;;7.83;;
18822;SDS011;9540;51.550;7.980;2023-02-04T04:44:00;44.47;;;7.37;;
18822;SDS011;9540;51.550;7.980;2023-02-04T04:46:27;31.70;;;6.17;;
18822;SDS011;9540;51.550;7.980;2023-02-04T04:48:54;40.90;;;7.17;;
18822;SDS011;9540;51.550;7.980;2023-02-04T04:51:21;40.47;;;5.90;;
18822;SDS011;9540;51.550;7.980;2023-02-04T04:53:49;37.23;;;5.90;;
18822;SDS011;9540;51.550;7.980;2023-02-04T04:56:16;38.13;;;6.17;;
18822;SDS011;9540;51.550;7.980;2023-02-04T04:58:45;45.83;;;6.63;;
18822;SDS011;9540;51.550;7.980;2023-02-04T05:01:12;47.90;;;6.70;;
18822;SDS011;9540;51.550;7.980;2023-02-04T05:03:39;48.67;;;8.20;;
18822;SDS011;9540;51.550;7.980;2023-02-04T05:06:06;39.97;;;8.20;;
18822;SDS011;9540;51.550;7.980;2023-02-04T05:08:35;42.67;;;8.17;;
18822;SDS011;9540;51.550;7.980;2023-02-04T05:11:02;50.60;;;8.27;;
18822;SDS011;9540;51.550;7.980;2023-02-04T05:13:29;66.33;;;11.73;;
18822;SDS011;9540;51.550;7.980;2023-02-04T05:15:58;57.17;;;7.80;;
18822;SDS011;9540;51.550;7.980;2023-02-04T05:18:26;41.73;;;8.03;;
18822;SDS011;9540;51.550;7.980;2023-02-04T05:20:53;38.80;;;6.43;;
18822;SDS011;9540;51.550;7.980;2023-02-04T05:23:20;43.77;;;8.37;;
18822;SDS011;9540;51.550;7.980;2023-02-04T05:25:47;42.67;;;6.67;;
18822;SDS011;9540;51.550;7.980;2023-02-04T05:28:17;64.20;;;8.33;;
18822;SDS011;9540;51.550;7.980;2023-02-04T05:30:44;43.93;;;7.63;;
18822;SDS011;9540;51.550;7.980;2023-02-04T05:33:13;55.93;;;8.17;;
18822;SDS011;9540;51.550;7.980;2023-02-04T05:35:40;54.80;;;7.03;;
18822;SDS011;9540;51.550;7.980;2023-02-04T05:38:07;51.83;;;7.60;;
18822;SDS011;9540;51.550;7.980;2023-02-04T05:40:34;56.07;;;10.57;;
18822;SDS011;9540;51.550;7.980;2023-02-04T05:43:02;51.73;;;9.77;;
18822;SDS011;9540;51.550;7.980;2023-02-04T05:45:29;56.23;;;9.37;;
18822;SDS011;9540;51.550;7.980;2023-02-04T05:47:56;41.60;;;8.70;;
18822;SDS011;9540;51.550;7.980;2023-02-04T05:50:25;53.87;;;9.33;;
18822;SDS011;9540;51.550;7.980;2023-02-04T05:52:52;38.73;;;8.30;;
18822;SDS011;9540;51.550;7.980;2023-02-04T05:55:19;42.27;;;7.77;;
18822;SDS011;9540;51.550;7.980;2023-02-04T05:57:46;29.60;;;6.33;;
18822;SDS011;9540;51.550;7.980;2023-02-04T06:00:13;42.63;;;7.80;;
18822;SDS011;9540;51.550;7.980;2023-02-04T06:02:40;36.87;;;6.07;;
18822;SDS011;9540;51.550;7.980;2023-02-04T06:05:07;27.90;;;5.23;;
18822;SDS011;9540;51.550;7.980;2023-02-04T06:07:39;32.00;;;4.83;;
18822;SDS011;9540;51.550;7.980;2023-02-04T06:10:06;31.80;;;5.97;;
18822;SDS011;9540;51.550;7.980;2023-02-04T06:12:33;37.57;;;6.87;;
18822;SDS011;9540;51.550;7.980;2023-02-04T06:15:00;29.83;;;4.83;;
18822;SDS011;9540;51.550;7.980;2023-02-04T06:17:27;35.17;;;4.93;;
18822;SDS011;9540;51.550;7.980;2023-02-04T06:19:56;29.33;;;4.50;;
18822;SDS011;9540;51.550;7.980;2023-02-04T06:22:23;31.93;;;6.27;;
18822;SDS011;9540;51.550;7.980;2023-02-04T06:24:52;31.30;;;6.13;;
18822;SDS011;9540;51.550;7.980;2023-02-04T06:27:19;27.43;;;5.33;;
18822;SDS011;9540;51.550;7.980;2023-02-04T06:29:48;31.40;;;6.60;;
18822;SDS011;9540;51.550;7.980;2023-02-04T06:32:15;37.30;;;6.30;;
18822;SDS011;9540;51.550;7.980;2023-02-04T06:34:42;32.73;;;7.00;;
18822;SDS011;9540;51.550;7.980;2023-02-04T06:37:10;34.20;;;7.27;;
18822;SDS011;9540;51.550;7.980;2023-02-04T06:39:37;27.80;;;6.37;;
18822;SDS011;9540;51.550;7.980;2023-02-04T06:42:06;32.85;;;8.13;;
18822;SDS011;9540;51.550;7.980;2023-02-04T06:44:33;25.73;;;5.87;;
18822;SDS011;9540;51.550;7.980;2023-02-04T06:47:03;30.37;;;6.53;;
18822;SDS011;9540;51.550;7.980;2023-02-04T06:49:30;34.30;;;6.97;;
18822;SDS011;9540;51.550;7.980;2023-02-04T06:51:57;26.97;;;6.33;;
18822;SDS011;9540;51.550;7.980;2023-02-04T06:54:24;26.83;;;6.03;;
18822;SDS011;9540;51.550;7.980;2023-02-04T06:56:51;28.80;;;6.67;;
18822;SDS011;9540;51.550;7.980;2023-02-04T06:59:20;24.47;;;5.63;;
18822;SDS011;9540;51.550;7.980;2023-02-04T07:01:49;27.27;;;7.43;;
18822;SDS011;9540;51.550;7.980;2023-02-04T07:04:16;30.07;;;9.43;;
18822;SDS011;9540;51.550;7.980;2023-02-04T07:06:43;41.17;;;11.00;;
18822;SDS011;9540;51.550;7.980;2023-02-04T07:09:10;49.70;;;12.80;;
18822;SDS011;9540;51.550;7.980;2023-02-04T07:11:37;41.43;;;11.37;;
18822;SDS011;9540;51.550;7.980;2023-02-04T07:14:04;41.77;;;10.40;;
18822;SDS011;9540;51.550;7.980;2023-02-04T07:16:33;25.67;;;9.87;;
18822;SDS011;9540;51.550;7.980;2023-02-04T07:19:00;31.83;;;9.53;;
18822;SDS011;9540;51.550;7.980;2023-02-04T07:21:28;39.67;;;8.03;;
18822;SDS011;9540;51.550;7.980;2023-02-04T07:23:55;30.53;;;8.17;;
18822;SDS011;9540;51.550;7.980;2023-02-04T07:26:22;23.27;;;7.37;;
18822;SDS011;9540;51.550;7.980;2023-02-04T07:28:49;26.30;;;7.40;;
18822;SDS011;9540;51.550;7.980;2023-02-04T07:31:16;32.03;;;7.20;;
18822;SDS011;9540;51.550;7.980;2023-02-04T07:33:45;28.10;;;7.40;;
18822;SDS011;9540;51.550;7.980;2023-02-04T07:36:12;25.47;;;8.07;;
18822;SDS011;9540;51.550;7.980;2023-02-04T07:38:39;28.60;;;7.90;;
18822;SDS011;9540;51.550;7.980;2023-02-04T07:41:06;30.23;;;9.13;;
18822;SDS011;9540;51.550;7.980;2023-02-04T07:43:33;30.83;;;8.03;;
18822;SDS011;9540;51.550;7.980;2023-02-04T07:46:00;27.70;;;7.50;;
18822;SDS011;9540;51.550;7.980;2023-02-04T07:48:27;27.67;;;7.23;;
18822;SDS011;9540;51.550;7.980;2023-02-04T07:50:56;22.57;;;6.63;;
18822;SDS011;9540;51.550;7.980;2023-02-04T07:53:23;30.23;;;6.00;;
18822;SDS011;9540;51.550;7.980;2023-02-04T07:55:50;26.47;;;6.70;;
18822;SDS011;9540;51.550;7.980;2023-02-04T07:58:17;28.37;;;6.50;;
18822;SDS011;9540;51.550;7.980;2023-02-04T08:00:44;27.50;;;6.40;;
18822;SDS011;9540;51.550;7.980;2023-02-04T08:03:12;21.83;;;5.47;;
18822;SDS011;9540;51.550;7.980;2023-02-04T08:05:39;24.93;;;6.30;;
18822;SDS011;9540;51.550;7.980;2023-02-04T08:08:07;31.43;;;6.20;;
18822;SDS011;9540;51.550;7.980;2023-02-04T08:10:34;27.60;;;6.80;;
18822;SDS011;9540;51.550;7.980;2023-02-04T08:13:02;30.00;;;7.30;;
18822;SDS011;9540;51.550;7.980;2023-02-04T08:15:29;30.07;;;5.77;;
18822;SDS011;9540;51.550;7.980;2023-02-04T08:17:56;31.70;;;8.27;;
18822;SDS011;9540;51.550;7.980;2023-02-04T08:20:23;21.23;;;7.03;;
18822;SDS011;9540;51.550;7.980;2023-02-04T08:22:51;28.80;;;6.53;;
18822;SDS011;9540;51.550;7.980;2023-02-04T08:25:19;36.97;;;7.37;;
18822;SDS011;9540;51.550;7.980;2023-02-04T08:27:46;29.77;;;6.60;;
18822;SDS011;9540;51.550;7.980;2023-02-04T08:32:41;34.42;;;6.90;;
18822;SDS011;9540;51.550;7.980;2023-02-04T08:35:09;29.75;;;5.80;;
18822;SDS011;9540;51.550;7.980;2023-02-04T08:37:37;25.17;;;5.45;;
18822;SDS011;9540;51.550;7.980;2023-02-04T08:40:05;26.75;;;5.57;;
18822;SDS011;9540;51.550;7.980;2023-02-04T08:42:34;24.80;;;6.70;;
18822;SDS011;9540;51.550;7.980;2023-02-04T08:45:01;29.90;;;6.13;;
18822;SDS011;9540;51.550;7.980;2023-02-04T08:47:29;30.50;;;8.52;;
18822;SDS011;9540;51.550;7.980;2023-02-04T08:49:56;33.08;;;7.00;;
18822;SDS011;9540;51.550;7.980;2023-02-04T08:52:23;27.33;;;6.40;;
18822;SDS011;9540;51.550;7.980;2023-02-04T08:54:50;39.53;;;7.65;;
18822;SDS011;9540;51.550;7.980;2023-02-04T08:57:17;33.15;;;6.75;;
18822;SDS011;9540;51.550;7.980;2023-02-04T08:59:46;35.10;;;6.82;;
18822;SDS011;9540;51.550;7.980;2023-02-04T09:02:14;40.53;;;7.10;;
18822;SDS011;9540;51.550;7.980;2023-02-04T09:04:41;39.10;;;7.38;;
18822;SDS011;9540;51.550;7.980;2023-02-04T09:07:08;25.55;;;5.50;;
18822;SDS011;9540;51.550;7.980;2023-02-04T09:09:35;29.20;;;6.03;;
18822;SDS011;9540;51.550;7.980;2023-02-04T09:12:02;30.20;;;5.97;;
18822;SDS011;9540;51.550;7.980;2023-02-04T09:14:33;31.38;;;6.28;;
18822;SDS011;9540;51.550;7.980;2023-02-04T09:17:01;38.33;;;7.50;;
18822;SDS011;9540;51.550;7.980;2023-02-04T09:19:30;29.88;;;5.85;;
18822;SDS011;9540;51.550;7.980;2023-02-04T09:21:57;38.47;;;6.35;;
18822;SDS011;9540;51.550;7.980;2023-02-04T09:24:24;26.42;;;5.60;;
18822;SDS011;9540;51.550;7.980;2023-02-04T09:26:51;28.27;;;6.18;;
18822;SDS011;9540;51.550;7.980;2023-02-04T09:29:18;40.10;;;6.97;;
18822;SDS011;9540;51.550;7.980;2023-02-04T09:31:45;27.23;;;6.38;;
18822;SDS011;9540;51.550;7.980;2023-02-04T09:34:14;37.58;;;5.93;;
18822;SDS011;9540;51.550;7.980;2023-02-04T09:36:41;32.28;;;5.30;;
18822;SDS011;9540;51.550;7.980;2023-02-04T09:39:08;34.85;;;5.88;;
18822;SDS011;9540;51.550;7.980;2023-02-04T09:41:35;34.03;;;6.97;;
18822;SDS011;9540;51.550;7.980;2023-02-04T09:44:04;35.15;;;6.50;;
18822;SDS011;9540;51.550;7.980;2023-02-04T09:46:38;33.03;;;6.20;;
18822;SDS011;9540;51.550;7.980;2023-02-04T09:49:07;40.58;;;5.75;;
18822;SDS011;9540;51.550;7.980;2023-02-04T09:51:37;34.05;;;5.72;;
18822;SDS011;9540;51.550;7.980;2023-02-04T09:54:06;35.33;;;6.03;;
18822;SDS011;9540;51.550;7.980;2023-02-04T09:56:37;32.33;;;6.72;;
18822;SDS011;9540;51.550;7.980;2023-02-04T09:59:05;26.55;;;6.10;;
18822;SDS011;9540;51.550;7.980;2023-02-04T10:01:36;27.60;;;6.97;;
18822;SDS011;9540;51.550;7.980;2023-02-04T10:04:03;35.70;;;6.07;;
18822;SDS011;9540;51.550;7.980;2023-02-04T10:06:30;29.83;;;6.00;;
18822;SDS011;9540;51.550;7.980;2023-02-04T10:08:59;32.33;;;6.22;;
18822;SDS011;9540;51.550;7.980;2023-02-04T10:11:26;24.70;;;6.03;;
18822;SDS011;9540;51.550;7.980;2023-02-04T10:13:57;37.13;;;7.40;;
18822;SDS011;9540;51.550;7.980;2023-02-04T10:16:25;34.33;;;7.13;;
18822;SDS011;9540;51.550;7.980;2023-02-04T10:18:56;23.85;;;5.43;;
18822;SDS011;9540;51.550;7.980;2023-02-04T10:21:26;30.83;;;5.72;;
18822;SDS011;9540;51.550;7.980;2023-02-04T10:23:54;33.95;;;5.90;;
18822;SDS011;9540;51.550;7.980;2023-02-04T10:26:25;28.80;;;6.07;;
18822;SDS011;9540;51.550;7.980;2023-02-04T10:28:59;25.52;;;6.18;;
18822;SDS011;9540;51.550;7.980;2023-02-04T10:31:28;28.92;;;5.70;;
18822;SDS011;9540;51.550;7.980;2023-02-04T10:34:05;34.15;;;6.10;;
18822;SDS011;9540;51.550;7.980;2023-02-04T10:36:33;25.27;;;5.75;;
18822;SDS011;9540;51.550;7.980;2023-02-04T10:39:00;38.72;;;6.75;;
18822;SDS011;9540;51.550;7.980;2023-02-04T10:41:30;25.27;;;5.88;;
18822;SDS011;9540;51.550;7.980;2023-02-04T10:44:05;34.50;;;5.93;;
18822;SDS011;9540;51.550;7.980;2023-02-04T10:46:33;25.90;;;5.95;;
18822;SDS011;9540;51.550;7.980;2023-02-04T10:49:02;25.77;;;6.72;;
18822;SDS011;9540;51.550;7.980;2023-02-04T10:51:29;29.65;;;6.80;;
18822;SDS011;9540;51.550;7.980;2023-02-04T10:53:57;31.58;;;5.78;;
18822;SDS011;9540;51.550;7.980;2023-02-04T10:56:43;26.15;;;5.85;;
18822;SDS011;9540;51.550;7.980;2023-02-04T10:59:12;26.50;;;5.70;;
18822;SDS011;9540;51.550;7.980;2023-02-04T11:01:48;33.28;;;6.60;;
18822;SDS011;9540;51.550;7.980;2023-02-04T11:04:15;40.67;;;7.32;;
18822;SDS011;9540;51.550;7.980;2023-02-04T11:06:42;33.83;;;6.97;;
18822;SDS011;9540;51.550;7.980;2023-02-04T11:09:10;33.70;;;5.40;;
18822;SDS011;9540;51.550;7.980;2023-02-04T11:11:45;29.48;;;6.35;;
18822;SDS011;9540;51.550;7.980;2023-02-04T11:14:20;35.08;;;6.88;;
18822;SDS011;9540;51.550;7.980;2023-02-04T11:16:50;28.33;;;6.80;;
18822;SDS011;9540;51.550;7.980;2023-02-04T11:19:30;24.45;;;5.50;;
18822;SDS011;9540;51.550;7.980;2023-02-04T11:22:19;28.02;;;6.38;;
18822;SDS011;9540;51.550;7.980;2023-02-04T11:24:48;25.55;;;6.68;;
18822;SDS011;9540;51.550;7.980;2023-02-04T11:27:21;27.95;;;6.40;;
18822;SDS011;9540;51.550;7.980;2023-02-04T11:29:51;29.05;;;5.65;;
18822;SDS011;9540;51.550;7.980;2023-02-04T11:32:31;24.58;;;5.60;;
18822;SDS011;9540;51.550;7.980;2023-02-04T11:35:07;28.33;;;6.20;;
18822;SDS011;9540;51.550;7.980;2023-02-04T11:37:48;24.50;;;6.45;;
18822;SDS011;9540;51.550;7.980;2023-02-04T11:40:22;26.10;;;5.43;;
18822;SDS011;9540;51.550;7.980;2023-02-04T11:42:56;24.17;;;4.88;;
18822;SDS011;9540;51.550;7.980;2023-02-04T11:45:27;26.88;;;6.10;;
18822;SDS011;9540;51.550;7.980;2023-02-04T11:47:59;21.85;;;5.60;;
18822;SDS011;9540;51.550;7.980;2023-02-04T11:50:29;20.75;;;5.35;;
18822;SDS011;9540;51.550;7.980;2023-02-04T11:52:59;21.92;;;5.10;;
18822;SDS011;9540;51.550;7.980;2023-02-04T11:55:27;27.55;;;5.90;;
18822;SDS011;9540;51.550;7.980;2023-02-04T11:57:56;21.88;;;5.70;;
18822;SDS011;9540;51.550;7.980;2023-02-04T12:00:24;28.48;;;5.25;;
18822;SDS011;9540;51.550;7.980;2023-02-04T12:02:55;18.35;;;4.47;;
18822;SDS011;9540;51.550;7.980;2023-02-04T12:05:34;28.02;;;5.90;;
18822;SDS011;9540;51.550;7.980;2023-02-04T12:08:10;27.48;;;5.55;;
18822;SDS011;9540;51.550;7.980;2023-02-04T12:10:46;24.00;;;5.32;;
18822;SDS011;9540;51.550;7.980;2023-02-04T12:13:22;31.77;;;6.35;;
18822;SDS011;9540;51.550;7.980;2023-02-04T12:15:57;28.17;;;6.00;;
18822;SDS011;9540;51.550;7.980;2023-02-04T12:18:26;21.75;;;5.75;;
18822;SDS011;9540;51.550;7.980;2023-02-04T12:20:54;23.15;;;4.47;;
18822;SDS011;9540;51.550;7.980;2023-02-04T12:23:21;29.40;;;5.18;;
18822;SDS011;9540;51.550;7.980;2023-02-04T12:25:49;24.27;;;4.95;;
18822;SDS011;9540;51.550;7.980;2023-02-04T12:28:16;22.40;;;5.05;;
18822;SDS011;9540;51.550;7.980;2023-02-04T12:30:45;24.70;;;5.00;;
18822;SDS011;9540;51.550;7.980;2023-02-04T12:33:13;20.90;;;4.85;;
18822;SDS011;9540;51.550;7.980;2023-02-04T12:35:40;24.75;;;5.78;;
18822;SDS011;9540;51.550;7.980;2023-02-04T12:38:08;21.15;;;5.60;;
18822;SDS011;9540;51.550;7.980;2023-02-04T12:40:35;23.52;;;5.00;;
18822;SDS011;9540;51.550;7.980;2023-02-04T12:43:02;17.45;;;4.50;;
18822;SDS011;9540;51.550;7.980;2023-02-04T12:45:31;27.15;;;5.70;;
18822;SDS011;9540;51.550;7.980;2023-02-04T12:47:58;23.35;;;5.22;;
18822;SDS011;9540;51.550;7.980;2023-02-04T12:50:26;21.90;;;5.25;;
18822;SDS011;9540;51.550;7.980;2023-02-04T12:52:53;18.95;;;4.38;;
18822;SDS011;9540;51.550;7.980;2023-02-04T12:55:22;20.63;;;4.38;;
18822;SDS011;9540;51.550;7.980;2023-02-04T12:57:49;31.23;;;5.68;;
18822;SDS011;9540;51.550;7.980;2023-02-04T13:00:18;22.42;;;5.38;;
18822;SDS011;9540;51.550;7.980;2023-02-04T13:02:47;22.40;;;5.68;;
18822;SDS011;9540;51.550;7.980;2023-02-04T13:05:15;17.83;;;4.47;;
18822;SDS011;9540;51.550;7.980;2023-02-04T13:07:43;26.10;;;5.03;;
18822;SDS011;9540;51.550;7.980;2023-02-04T13:10:10;24.30;;;5.80;;
18822;SDS011;9540;51.550;7.980;2023-02-04T13:12:38;27.48;;;5.72;;
18822;SDS011;9540;51.550;7.980;2023-02-04T13:15:06;20.00;;;4.18;;
18822;SDS011;9540;51.550;7.980;2023-02-04T13:17:34;22.52;;;4.63;;
18822;SDS011;9540;51.550;7.980;2023-02-04T13:20:02;31.25;;;6.22;;
18822;SDS011;9540;51.550;7.980;2023-02-04T13:22:30;27.27;;;5.28;;
18822;SDS011;9540;51.550;7.980;2023-02-04T13:24:57;23.75;;;4.85;;
18822;SDS011;9540;51.550;7.980;2023-02-04T13:27:24;22.38;;;4.57;;
18822;SDS011;9540;51.550;7.980;2023-02-04T13:29:52;23.38;;;5.07;;
18822;SDS011;9540;51.550;7.980;2023-02-04T13:32:19;23.17;;;5.70;;
18822;SDS011;9540;51.550;7.980;2023-02-04T13:34:46;21.38;;;4.35;;
18822;SDS011;9540;51.550;7.980;2023-02-04T13:37:18;13.45;;;4.85;;
18822;SDS011;9540;51.550;7.980;2023-02-04T13:39:45;25.52;;;5.18;;
18822;SDS011;9540;51.550;7.980;2023-02-04T13:42:12;20.33;;;4.63;;
18822;SDS011;9540;51.550;7.980;2023-02-04T13:44:39;21.80;;;5.00;;
18822;SDS011;9540;51.550;7.980;2023-02-04T13:47:06;20.67;;;4.40;;
18822;SDS011;9540;51.550;7.980;2023-02-04T13:49:33;22.60;;;4.13;;
18822;SDS011;9540;51.550;7.980;2023-02-04T13:52:00;22.20;;;4.60;;
18822;SDS011;9540;51.550;7.980;2023-02-04T13:54:29;22.08;;;4.72;;
18822;SDS011;9540;51.550;7.980;2023-02-04T13:56:56;15.93;;;3.95;;
18822;SDS011;9540;51.550;7.980;2023-02-04T13:59:23;19.20;;;4.68;;
18822;SDS011;9540;51.550;7.980;2023-02-04T14:01:51;21.73;;;4.35;;
18822;SDS011;9540;51.550;7.980;2023-02-04T14:04:18;20.08;;;3.83;;
18822;SDS011;9540;51.550;7.980;2023-02-04T14:06:45;15.23;;;4.15;;
18822;SDS011;9540;51.550;7.980;2023-02-04T14:09:12;19.00;;;4.13;;
18822;SDS011;9540;51.550;7.980;2023-02-04T14:11:42;15.60;;;3.65;;
18822;SDS011;9540;51.550;7.980;2023-02-04T14:14:10;24.30;;;3.70;;
18822;SDS011;9540;51.550;7.980;2023-02-04T14:16:37;18.02;;;3.50;;
18822;SDS011;9540;51.550;7.980;2023-02-04T14:19:04;24.75;;;4.20;;
18822;SDS011;9540;51.550;7.980;2023-02-04T14:21:31;18.75;;;4.32;;
18822;SDS011;9540;51.550;7.980;2023-02-04T14:23:58;21.45;;;3.85;;
18822;SDS011;9540;51.550;7.980;2023-02-04T14:26:26;20.17;;;4.25;;
18822;SDS011;9540;51.550;7.980;2023-02-04T14:28:58;14.65;;;3.53;;
18822;SDS011;9540;51.550;7.980;2023-02-04T14:31:26;19.58;;;3.65;;
18822;SDS011;9540;51.550;7.980;2023-02-04T14:33:53;17.77;;;4.10;;
18822;SDS011;9540;51.550;7.980;2023-02-04T14:36:20;20.35;;;3.85;;
18822;SDS011;9540;51.550;7.980;2023-02-04T14:38:47;14.55;;;3.53;;
18822;SDS011;9540;51.550;7.980;2023-02-04T14:41:15;14.85;;;3.60;;
18822;SDS011;9540;51.550;7.980;2023-02-04T14:43:44;17.67;;;3.78;;
18822;SDS011;9540;51.550;7.980;2023-02-04T14:46:12;17.33;;;3.97;;
18822;SDS011;9540;51.550;7.980;2023-02-04T14:48:39;14.13;;;3.70;;
18822;SDS011;9540;51.550;7.980;2023-02-04T14:51:09;14.75;;;3.92;;
18822;SDS011;9540;51.550;7.980;2023-02-04T14:53:37;15.02;;;3.95;;
18822;SDS011;9540;51.550;7.980;2023-02-04T14:56:04;11.68;;;3.75;;